sensor_id;sensor_type;location;lat;lon;timestamp;P1;durP1;ratioP1;P2;durP2;ratioP2
53151;SDS011;39234;53.158;6.322;2022-07-18T00:01:56;4.10;;;2.55;;
53151;SDS011;39234;53.158;6.322;2022-07-18T00:04:24;6.20;;;3.53;;
53151;SDS011;39234;53.158;6.322;2022-07-18T00:06:50;6.72;;;3.80;;
53151;SDS011;39234;53.158;6.322;2022-07-18T00:09:16;7.28;;;4.07;;
53151;SDS011;39234;53.158;6.322;2022-07-18T00:11:44;6.30;;;3.08;;
53151;SDS011;39234;53.158;6.322;2022-07-18T00:14:12;6.65;;;3.35;;
53151;SDS011;39234;53.158;6.322;2022-07-18T00:16:38;7.55;;;3.90;;
53151;SDS011;39234;53.158;6.322;2022-07-18T00:19:03;6.50;;;3.42;;
53151;SDS011;39234;53.158;6.322;2022-07-18T00:21:32;7.13;;;3.50;;
53151;SDS011;39234;53.158;6.322;2022-07-18T00:23:58;6.60;;;4.30;;
53151;SDS011;39234;53.158;6.322;2022-07-18T00:26:24;5.82;;;3.92;;
53151;SDS011;39234;53.158;6.322;2022-07-18T00:28:52;5.95;;;3.63;;
53151;SDS011;39234;53.158;6.322;2022-07-18T00:31:18;5.80;;;3.22;;
53151;SDS011;39234;53.158;6.322;2022-07-18T00:33:44;6.93;;;4.28;;
53151;SDS011;39234;53.158;6.322;2022-07-18T00:36:10;7.32;;;4.90;;
53151;SDS011;39234;53.158;6.322;2022-07-18T00:38:36;6.80;;;4.18;;
53151;SDS011;39234;53.158;6.322;2022-07-18T00:41:01;6.20;;;4.47;;
53151;SDS011;39234;53.158;6.322;2022-07-18T00:43:27;10.18;;;5.43;;
53151;SDS011;39234;53.158;6.322;2022-07-18T00:45:55;6.43;;;4.53;;
53151;SDS011;39234;53.158;6.322;2022-07-18T00:48:20;6.15;;;3.92;;
53151;SDS011;39234;53.158;6.322;2022-07-18T00:50:47;5.95;;;3.45;;
53151;SDS011;39234;53.158;6.322;2022-07-18T00:53:12;7.78;;;4.20;;
53151;SDS011;39234;53.158;6.322;2022-07-18T00:55:39;8.15;;;3.70;;
53151;SDS011;39234;53.158;6.322;2022-07-18T00:58:06;6.72;;;3.92;;
53151;SDS011;39234;53.158;6.322;2022-07-18T01:00:34;8.05;;;4.47;;
53151;SDS011;39234;53.158;6.322;2022-07-18T01:03:18;8.18;;;4.20;;
53151;SDS011;39234;53.158;6.322;2022-07-18T01:05:46;5.90;;;3.65;;
53151;SDS011;39234;53.158;6.322;2022-07-18T01:08:12;5.70;;;3.88;;
53151;SDS011;39234;53.158;6.322;2022-07-18T01:10:37;7.25;;;3.85;;
53151;SDS011;39234;53.158;6.322;2022-07-18T01:13:03;5.97;;;3.45;;
53151;SDS011;39234;53.158;6.322;2022-07-18T01:15:29;8.00;;;3.72;;
53151;SDS011;39234;53.158;6.322;2022-07-18T01:17:55;5.45;;;3.72;;
53151;SDS011;39234;53.158;6.322;2022-07-18T01:20:20;5.22;;;3.55;;
53151;SDS011;39234;53.158;6.322;2022-07-18T01:22:46;5.35;;;3.45;;
53151;SDS011;39234;53.158;6.322;2022-07-18T01:25:12;8.50;;;3.65;;
53151;SDS011;39234;53.158;6.322;2022-07-18T01:27:42;6.05;;;4.00;;
53151;SDS011;39234;53.158;6.322;2022-07-18T01:30:08;5.88;;;3.85;;
53151;SDS011;39234;53.158;6.322;2022-07-18T01:32:34;6.38;;;3.50;;
53151;SDS011;39234;53.158;6.322;2022-07-18T01:35:01;4.40;;;3.08;;
53151;SDS011;39234;53.158;6.322;2022-07-18T01:37:28;6.00;;;4.28;;
53151;SDS011;39234;53.158;6.322;2022-07-18T01:39:53;6.65;;;3.70;;
53151;SDS011;39234;53.158;6.322;2022-07-18T01:42:19;7.68;;;3.72;;
53151;SDS011;39234;53.158;6.322;2022-07-18T01:44:45;5.40;;;3.72;;
53151;SDS011;39234;53.158;6.322;2022-07-18T01:47:11;8.73;;;5.03;;
53151;SDS011;39234;53.158;6.322;2022-07-18T01:49:39;9.13;;;4.63;;
53151;SDS011;39234;53.158;6.322;2022-07-18T01:52:05;7.32;;;4.50;;
53151;SDS011;39234;53.158;6.322;2022-07-18T01:54:32;5.68;;;3.80;;
53151;SDS011;39234;53.158;6.322;2022-07-18T01:56:59;5.28;;;3.53;;
53151;SDS011;39234;53.158;6.322;2022-07-18T01:59:27;10.95;;;4.80;;
53151;SDS011;39234;53.158;6.322;2022-07-18T02:01:53;9.30;;;4.72;;
53151;SDS011;39234;53.158;6.322;2022-07-18T02:04:20;9.13;;;4.43;;
53151;SDS011;39234;53.158;6.322;2022-07-18T02:07:06;6.10;;;4.40;;
53151;SDS011;39234;53.158;6.322;2022-07-18T02:09:32;6.95;;;4.05;;
53151;SDS011;39234;53.158;6.322;2022-07-18T02:11:58;8.38;;;3.97;;
53151;SDS011;39234;53.158;6.322;2022-07-18T02:14:23;7.45;;;3.80;;
53151;SDS011;39234;53.158;6.322;2022-07-18T02:16:51;7.38;;;4.25;;
53151;SDS011;39234;53.158;6.322;2022-07-18T02:19:16;7.20;;;4.22;;
53151;SDS011;39234;53.158;6.322;2022-07-18T02:21:42;7.18;;;3.80;;
53151;SDS011;39234;53.158;6.322;2022-07-18T02:24:08;7.43;;;3.60;;
53151;SDS011;39234;53.158;6.322;2022-07-18T02:26:33;6.82;;;3.58;;
53151;SDS011;39234;53.158;6.322;2022-07-18T02:28:59;7.60;;;3.90;;
53151;SDS011;39234;53.158;6.322;2022-07-18T02:31:25;6.57;;;3.50;;
53151;SDS011;39234;53.158;6.322;2022-07-18T02:33:51;7.32;;;4.32;;
53151;SDS011;39234;53.158;6.322;2022-07-18T02:36:17;8.80;;;5.30;;
53151;SDS011;39234;53.158;6.322;2022-07-18T02:38:43;8.50;;;4.45;;
53151;SDS011;39234;53.158;6.322;2022-07-18T02:41:09;7.53;;;4.90;;
53151;SDS011;39234;53.158;6.322;2022-07-18T02:43:34;7.30;;;4.45;;
53151;SDS011;39234;53.158;6.322;2022-07-18T02:46:00;7.70;;;5.18;;
53151;SDS011;39234;53.158;6.322;2022-07-18T02:48:28;10.05;;;6.32;;
53151;SDS011;39234;53.158;6.322;2022-07-18T02:50:53;8.38;;;6.32;;
53151;SDS011;39234;53.158;6.322;2022-07-18T02:53:19;10.20;;;6.07;;
53151;SDS011;39234;53.158;6.322;2022-07-18T02:55:48;9.48;;;5.93;;
53151;SDS011;39234;53.158;6.322;2022-07-18T02:58:17;9.45;;;6.82;;
53151;SDS011;39234;53.158;6.322;2022-07-18T03:00:43;10.48;;;6.18;;
53151;SDS011;39234;53.158;6.322;2022-07-18T03:03:09;9.15;;;6.72;;
53151;SDS011;39234;53.158;6.322;2022-07-18T03:05:34;9.52;;;6.47;;
53151;SDS011;39234;53.158;6.322;2022-07-18T03:08:00;12.73;;;6.63;;
53151;SDS011;39234;53.158;6.322;2022-07-18T03:10:25;11.35;;;7.18;;
53151;SDS011;39234;53.158;6.322;2022-07-18T03:12:51;10.35;;;7.03;;
53151;SDS011;39234;53.158;6.322;2022-07-18T03:15:17;8.40;;;6.38;;
53151;SDS011;39234;53.158;6.322;2022-07-18T03:17:42;10.38;;;8.18;;
53151;SDS011;39234;53.158;6.322;2022-07-18T03:20:10;11.35;;;7.25;;
53151;SDS011;39234;53.158;6.322;2022-07-18T03:22:36;13.52;;;7.00;;
53151;SDS011;39234;53.158;6.322;2022-07-18T03:25:02;13.15;;;7.88;;
53151;SDS011;39234;53.158;6.322;2022-07-18T03:27:28;14.23;;;7.22;;
53151;SDS011;39234;53.158;6.322;2022-07-18T03:29:57;13.70;;;7.65;;
53151;SDS011;39234;53.158;6.322;2022-07-18T03:32:23;12.93;;;7.95;;
53151;SDS011;39234;53.158;6.322;2022-07-18T03:34:49;11.23;;;7.53;;
53151;SDS011;39234;53.158;6.322;2022-07-18T03:37:16;12.95;;;7.05;;
53151;SDS011;39234;53.158;6.322;2022-07-18T03:39:42;10.40;;;6.85;;
53151;SDS011;39234;53.158;6.322;2022-07-18T03:42:08;11.48;;;7.93;;
53151;SDS011;39234;53.158;6.322;2022-07-18T03:44:33;11.60;;;7.28;;
53151;SDS011;39234;53.158;6.322;2022-07-18T03:46:59;12.13;;;7.40;;
53151;SDS011;39234;53.158;6.322;2022-07-18T03:49:24;15.43;;;7.55;;
53151;SDS011;39234;53.158;6.322;2022-07-18T03:51:52;11.30;;;7.63;;
53151;SDS011;39234;53.158;6.322;2022-07-18T03:54:20;9.60;;;6.97;;
53151;SDS011;39234;53.158;6.322;2022-07-18T03:56:47;13.75;;;6.97;;
53151;SDS011;39234;53.158;6.322;2022-07-18T03:59:12;11.98;;;7.55;;
53151;SDS011;39234;53.158;6.322;2022-07-18T04:01:38;12.50;;;7.25;;
53151;SDS011;39234;53.158;6.322;2022-07-18T04:04:04;11.23;;;7.47;;
53151;SDS011;39234;53.158;6.322;2022-07-18T04:06:32;10.65;;;7.25;;
53151;SDS011;39234;53.158;6.322;2022-07-18T04:08:59;10.10;;;7.22;;
53151;SDS011;39234;53.158;6.322;2022-07-18T04:11:25;11.30;;;7.10;;
53151;SDS011;39234;53.158;6.322;2022-07-18T04:13:51;10.90;;;7.45;;
53151;SDS011;39234;53.158;6.322;2022-07-18T04:16:19;13.85;;;7.13;;
53151;SDS011;39234;53.158;6.322;2022-07-18T04:18:45;10.73;;;6.80;;
53151;SDS011;39234;53.158;6.322;2022-07-18T04:21:11;12.95;;;7.60;;
53151;SDS011;39234;53.158;6.322;2022-07-18T04:23:37;11.07;;;7.18;;
53151;SDS011;39234;53.158;6.322;2022-07-18T04:26:03;12.63;;;6.90;;
53151;SDS011;39234;53.158;6.322;2022-07-18T04:28:30;11.75;;;7.03;;
53151;SDS011;39234;53.158;6.322;2022-07-18T04:30:57;10.70;;;6.45;;
53151;SDS011;39234;53.158;6.322;2022-07-18T04:33:23;11.50;;;6.32;;
53151;SDS011;39234;53.158;6.322;2022-07-18T04:35:49;9.05;;;6.05;;
53151;SDS011;39234;53.158;6.322;2022-07-18T04:38:16;11.45;;;6.93;;
53151;SDS011;39234;53.158;6.322;2022-07-18T04:40:42;10.98;;;6.90;;
53151;SDS011;39234;53.158;6.322;2022-07-18T04:43:07;13.65;;;6.85;;
53151;SDS011;39234;53.158;6.322;2022-07-18T04:45:34;11.25;;;7.22;;
53151;SDS011;39234;53.158;6.322;2022-07-18T04:48:01;13.43;;;7.10;;
53151;SDS011;39234;53.158;6.322;2022-07-18T04:50:27;11.07;;;7.70;;
53151;SDS011;39234;53.158;6.322;2022-07-18T04:52:55;10.23;;;6.85;;
53151;SDS011;39234;53.158;6.322;2022-07-18T04:55:22;9.73;;;6.65;;
53151;SDS011;39234;53.158;6.322;2022-07-18T04:57:49;13.43;;;7.00;;
53151;SDS011;39234;53.158;6.322;2022-07-18T05:00:17;10.95;;;7.03;;
53151;SDS011;39234;53.158;6.322;2022-07-18T05:02:49;9.98;;;6.63;;
53151;SDS011;39234;53.158;6.322;2022-07-18T05:05:16;13.80;;;6.65;;
53151;SDS011;39234;53.158;6.322;2022-07-18T05:07:43;12.75;;;6.70;;
53151;SDS011;39234;53.158;6.322;2022-07-18T05:10:12;9.93;;;6.50;;
53151;SDS011;39234;53.158;6.322;2022-07-18T05:12:40;12.20;;;6.68;;
53151;SDS011;39234;53.158;6.322;2022-07-18T05:15:07;13.50;;;6.65;;
53151;SDS011;39234;53.158;6.322;2022-07-18T05:17:36;13.52;;;7.32;;
53151;SDS011;39234;53.158;6.322;2022-07-18T05:20:06;11.73;;;6.55;;
53151;SDS011;39234;53.158;6.322;2022-07-18T05:22:34;10.95;;;6.97;;
53151;SDS011;39234;53.158;6.322;2022-07-18T05:25:00;8.68;;;6.25;;
53151;SDS011;39234;53.158;6.322;2022-07-18T05:27:29;11.82;;;5.85;;
53151;SDS011;39234;53.158;6.322;2022-07-18T05:29:54;9.50;;;5.75;;
53151;SDS011;39234;53.158;6.322;2022-07-18T05:32:20;13.13;;;5.43;;
53151;SDS011;39234;53.158;6.322;2022-07-18T05:34:46;10.77;;;5.80;;
53151;SDS011;39234;53.158;6.322;2022-07-18T05:37:12;9.73;;;4.82;;
53151;SDS011;39234;53.158;6.322;2022-07-18T05:39:38;7.85;;;5.10;;
53151;SDS011;39234;53.158;6.322;2022-07-18T05:42:05;10.68;;;5.65;;
53151;SDS011;39234;53.158;6.322;2022-07-18T05:44:31;9.57;;;5.28;;
53151;SDS011;39234;53.158;6.322;2022-07-18T05:46:57;8.48;;;5.30;;
53151;SDS011;39234;53.158;6.322;2022-07-18T05:49:26;11.38;;;5.30;;
53151;SDS011;39234;53.158;6.322;2022-07-18T05:51:52;10.50;;;5.43;;
53151;SDS011;39234;53.158;6.322;2022-07-18T05:54:17;9.57;;;4.70;;
53151;SDS011;39234;53.158;6.322;2022-07-18T05:56:47;10.88;;;4.95;;
53151;SDS011;39234;53.158;6.322;2022-07-18T05:59:17;13.68;;;5.28;;
53151;SDS011;39234;53.158;6.322;2022-07-18T06:01:45;9.18;;;4.88;;
53151;SDS011;39234;53.158;6.322;2022-07-18T06:04:11;11.57;;;4.85;;
53151;SDS011;39234;53.158;6.322;2022-07-18T06:06:37;8.43;;;4.80;;
53151;SDS011;39234;53.158;6.322;2022-07-18T06:09:03;10.07;;;5.03;;
53151;SDS011;39234;53.158;6.322;2022-07-18T06:11:30;11.10;;;4.72;;
53151;SDS011;39234;53.158;6.322;2022-07-18T06:13:56;9.23;;;4.65;;
53151;SDS011;39234;53.158;6.322;2022-07-18T06:16:22;9.48;;;4.70;;
53151;SDS011;39234;53.158;6.322;2022-07-18T06:18:47;10.75;;;4.88;;
53151;SDS011;39234;53.158;6.322;2022-07-18T06:21:13;8.55;;;5.10;;
53151;SDS011;39234;53.158;6.322;2022-07-18T06:23:42;11.73;;;5.38;;
53151;SDS011;39234;53.158;6.322;2022-07-18T06:26:08;9.55;;;4.85;;
53151;SDS011;39234;53.158;6.322;2022-07-18T06:28:34;9.38;;;4.35;;
53151;SDS011;39234;53.158;6.322;2022-07-18T06:31:00;9.45;;;4.20;;
53151;SDS011;39234;53.158;6.322;2022-07-18T06:33:26;7.68;;;4.55;;
53151;SDS011;39234;53.158;6.322;2022-07-18T06:35:52;10.60;;;4.40;;
53151;SDS011;39234;53.158;6.322;2022-07-18T06:38:20;8.75;;;4.40;;
53151;SDS011;39234;53.158;6.322;2022-07-18T06:40:45;8.82;;;4.40;;
53151;SDS011;39234;53.158;6.322;2022-07-18T06:43:11;9.70;;;4.63;;
53151;SDS011;39234;53.158;6.322;2022-07-18T06:45:38;8.93;;;4.55;;
53151;SDS011;39234;53.158;6.322;2022-07-18T06:48:04;10.05;;;4.60;;
53151;SDS011;39234;53.158;6.322;2022-07-18T06:50:30;11.70;;;5.22;;
53151;SDS011;39234;53.158;6.322;2022-07-18T06:52:58;10.50;;;4.25;;
53151;SDS011;39234;53.158;6.322;2022-07-18T06:55:23;7.57;;;3.85;;
53151;SDS011;39234;53.158;6.322;2022-07-18T06:57:49;8.82;;;4.22;;
53151;SDS011;39234;53.158;6.322;2022-07-18T07:00:18;9.60;;;4.40;;
53151;SDS011;39234;53.158;6.322;2022-07-18T07:02:44;10.00;;;3.90;;
53151;SDS011;39234;53.158;6.322;2022-07-18T07:05:11;8.10;;;4.10;;
53151;SDS011;39234;53.158;6.322;2022-07-18T07:07:40;7.60;;;3.60;;
53151;SDS011;39234;53.158;6.322;2022-07-18T07:10:06;6.90;;;3.42;;
53151;SDS011;39234;53.158;6.322;2022-07-18T07:12:39;7.32;;;3.17;;
53151;SDS011;39234;53.158;6.322;2022-07-18T07:15:07;7.85;;;3.15;;
53151;SDS011;39234;53.158;6.322;2022-07-18T07:17:35;6.05;;;2.80;;
53151;SDS011;39234;53.158;6.322;2022-07-18T07:20:01;6.13;;;2.88;;
53151;SDS011;39234;53.158;6.322;2022-07-18T07:22:29;11.85;;;3.25;;
53151;SDS011;39234;53.158;6.322;2022-07-18T07:24:54;10.32;;;2.80;;
53151;SDS011;39234;53.158;6.322;2022-07-18T07:27:20;6.30;;;2.83;;
53151;SDS011;39234;53.158;6.322;2022-07-18T07:29:46;5.78;;;2.97;;
53151;SDS011;39234;53.158;6.322;2022-07-18T07:32:11;11.27;;;2.80;;
53151;SDS011;39234;53.158;6.322;2022-07-18T07:34:37;7.22;;;2.70;;
53151;SDS011;39234;53.158;6.322;2022-07-18T07:37:02;8.00;;;2.90;;
53151;SDS011;39234;53.158;6.322;2022-07-18T07:39:28;8.85;;;2.72;;
53151;SDS011;39234;53.158;6.322;2022-07-18T07:41:54;9.10;;;2.60;;
53151;SDS011;39234;53.158;6.322;2022-07-18T07:44:20;9.70;;;2.50;;
53151;SDS011;39234;53.158;6.322;2022-07-18T07:46:45;5.20;;;2.35;;
53151;SDS011;39234;53.158;6.322;2022-07-18T07:49:11;6.55;;;2.20;;
53151;SDS011;39234;53.158;6.322;2022-07-18T07:51:40;23.55;;;2.90;;
53151;SDS011;39234;53.158;6.322;2022-07-18T07:54:06;7.20;;;2.00;;
53151;SDS011;39234;53.158;6.322;2022-07-18T07:56:31;7.72;;;2.17;;
53151;SDS011;39234;53.158;6.322;2022-07-18T07:58:59;5.93;;;2.03;;
53151;SDS011;39234;53.158;6.322;2022-07-18T08:01:26;3.95;;;1.98;;
53151;SDS011;39234;53.158;6.322;2022-07-18T08:03:52;4.68;;;1.83;;
53151;SDS011;39234;53.158;6.322;2022-07-18T08:06:18;4.85;;;1.90;;
53151;SDS011;39234;53.158;6.322;2022-07-18T08:08:43;8.32;;;2.10;;
53151;SDS011;39234;53.158;6.322;2022-07-18T08:11:09;4.75;;;1.80;;
53151;SDS011;39234;53.158;6.322;2022-07-18T08:13:39;6.03;;;2.03;;
53151;SDS011;39234;53.158;6.322;2022-07-18T08:16:05;5.65;;;1.60;;
53151;SDS011;39234;53.158;6.322;2022-07-18T08:18:31;5.28;;;2.17;;
53151;SDS011;39234;53.158;6.322;2022-07-18T08:20:58;6.28;;;1.70;;
53151;SDS011;39234;53.158;6.322;2022-07-18T08:23:24;7.45;;;1.65;;
53151;SDS011;39234;53.158;6.322;2022-07-18T08:25:49;4.85;;;1.85;;
53151;SDS011;39234;53.158;6.322;2022-07-18T08:28:18;7.03;;;1.60;;
53151;SDS011;39234;53.158;6.322;2022-07-18T08:30:44;3.95;;;1.48;;
53151;SDS011;39234;53.158;6.322;2022-07-18T08:33:11;7.53;;;1.50;;
53151;SDS011;39234;53.158;6.322;2022-07-18T08:35:37;5.40;;;1.55;;
53151;SDS011;39234;53.158;6.322;2022-07-18T08:38:03;6.68;;;1.67;;
53151;SDS011;39234;53.158;6.322;2022-07-18T08:40:29;5.10;;;1.70;;
53151;SDS011;39234;53.158;6.322;2022-07-18T08:42:55;5.13;;;1.52;;
53151;SDS011;39234;53.158;6.322;2022-07-18T08:45:23;9.60;;;2.00;;
53151;SDS011;39234;53.158;6.322;2022-07-18T08:47:50;7.13;;;1.70;;
53151;SDS011;39234;53.158;6.322;2022-07-18T08:50:17;7.82;;;1.70;;
53151;SDS011;39234;53.158;6.322;2022-07-18T08:52:44;15.88;;;3.15;;
53151;SDS011;39234;53.158;6.322;2022-07-18T08:55:10;6.32;;;1.67;;
53151;SDS011;39234;53.158;6.322;2022-07-18T08:57:37;7.85;;;2.05;;
53151;SDS011;39234;53.158;6.322;2022-07-18T09:00:06;5.50;;;1.77;;
53151;SDS011;39234;53.158;6.322;2022-07-18T09:02:34;9.75;;;1.90;;
53151;SDS011;39234;53.158;6.322;2022-07-18T09:05:00;5.30;;;1.60;;
53151;SDS011;39234;53.158;6.322;2022-07-18T09:07:29;6.35;;;2.22;;
53151;SDS011;39234;53.158;6.322;2022-07-18T09:09:58;7.70;;;1.48;;
53151;SDS011;39234;53.158;6.322;2022-07-18T09:12:27;9.45;;;1.63;;
53151;SDS011;39234;53.158;6.322;2022-07-18T09:14:57;6.70;;;1.58;;
53151;SDS011;39234;53.158;6.322;2022-07-18T09:17:35;10.80;;;2.53;;
53151;SDS011;39234;53.158;6.322;2022-07-18T09:20:09;10.60;;;2.17;;
53151;SDS011;39234;53.158;6.322;2022-07-18T09:22:40;7.53;;;1.50;;
53151;SDS011;39234;53.158;6.322;2022-07-18T09:25:08;6.70;;;1.58;;
53151;SDS011;39234;53.158;6.322;2022-07-18T09:27:39;5.28;;;1.33;;
53151;SDS011;39234;53.158;6.322;2022-07-18T09:32:41;6.50;;;1.55;;
53151;SDS011;39234;53.158;6.322;2022-07-18T09:35:41;6.40;;;1.83;;
53151;SDS011;39234;53.158;6.322;2022-07-18T09:38:10;6.15;;;1.70;;
53151;SDS011;39234;53.158;6.322;2022-07-18T09:40:40;4.50;;;1.40;;
53151;SDS011;39234;53.158;6.322;2022-07-18T09:43:08;5.85;;;1.77;;
53151;SDS011;39234;53.158;6.322;2022-07-18T09:45:37;6.68;;;1.60;;
53151;SDS011;39234;53.158;6.322;2022-07-18T09:50:37;8.38;;;1.70;;
53151;SDS011;39234;53.158;6.322;2022-07-18T09:53:15;8.20;;;2.33;;
53151;SDS011;39234;53.158;6.322;2022-07-18T09:55:47;5.43;;;1.70;;
53151;SDS011;39234;53.158;6.322;2022-07-18T09:58:24;6.85;;;2.10;;
53151;SDS011;39234;53.158;6.322;2022-07-18T10:00:52;4.97;;;1.60;;
53151;SDS011;39234;53.158;6.322;2022-07-18T10:03:19;4.75;;;1.90;;
53151;SDS011;39234;53.158;6.322;2022-07-18T10:05:47;5.20;;;1.90;;
53151;SDS011;39234;53.158;6.322;2022-07-18T10:08:18;4.85;;;1.80;;
53151;SDS011;39234;53.158;6.322;2022-07-18T10:10:48;8.43;;;1.63;;
53151;SDS011;39234;53.158;6.322;2022-07-18T10:13:18;7.07;;;2.20;;
53151;SDS011;39234;53.158;6.322;2022-07-18T10:15:45;5.95;;;1.92;;
53151;SDS011;39234;53.158;6.322;2022-07-18T10:18:13;11.45;;;2.33;;
53151;SDS011;39234;53.158;6.322;2022-07-18T10:25:43;8.02;;;2.63;;
53151;SDS011;39234;53.158;6.322;2022-07-18T10:28:10;6.55;;;2.00;;
53151;SDS011;39234;53.158;6.322;2022-07-18T10:30:40;5.70;;;1.88;;
53151;SDS011;39234;53.158;6.322;2022-07-18T10:36:06;7.40;;;2.22;;
53151;SDS011;39234;53.158;6.322;2022-07-18T10:38:34;5.50;;;2.13;;
53151;SDS011;39234;53.158;6.322;2022-07-18T10:41:08;6.00;;;2.15;;
53151;SDS011;39234;53.158;6.322;2022-07-18T10:43:40;6.13;;;2.38;;
53151;SDS011;39234;53.158;6.322;2022-07-18T10:46:08;7.53;;;2.10;;
53151;SDS011;39234;53.158;6.322;2022-07-18T10:51:11;6.55;;;2.17;;
53151;SDS011;39234;53.158;6.322;2022-07-18T10:58:56;5.97;;;2.00;;
53151;SDS011;39234;53.158;6.322;2022-07-18T11:01:23;11.52;;;2.78;;
53151;SDS011;39234;53.158;6.322;2022-07-18T11:03:50;4.43;;;2.10;;
53151;SDS011;39234;53.158;6.322;2022-07-18T11:12:22;5.32;;;1.90;;
53151;SDS011;39234;53.158;6.322;2022-07-18T11:15:09;5.95;;;2.35;;
53151;SDS011;39234;53.158;6.322;2022-07-18T11:22:58;5.32;;;2.10;;
53151;SDS011;39234;53.158;6.322;2022-07-18T11:25:30;4.82;;;2.08;;
53151;SDS011;39234;53.158;6.322;2022-07-18T11:27:56;6.78;;;2.60;;
53151;SDS011;39234;53.158;6.322;2022-07-18T11:30:23;6.10;;;2.38;;
53151;SDS011;39234;53.158;6.322;2022-07-18T11:32:51;5.63;;;2.55;;
53151;SDS011;39234;53.158;6.322;2022-07-18T11:35:21;4.78;;;2.28;;
53151;SDS011;39234;53.158;6.322;2022-07-18T11:37:48;6.73;;;2.17;;
53151;SDS011;39234;53.158;6.322;2022-07-18T11:40:15;4.78;;;2.35;;
53151;SDS011;39234;53.158;6.322;2022-07-18T11:42:41;7.70;;;2.80;;
53151;SDS011;39234;53.158;6.322;2022-07-18T11:45:08;6.97;;;2.97;;
53151;SDS011;39234;53.158;6.322;2022-07-18T11:47:50;7.60;;;2.53;;
53151;SDS011;39234;53.158;6.322;2022-07-18T11:50:17;8.15;;;2.90;;
53151;SDS011;39234;53.158;6.322;2022-07-18T11:52:55;7.35;;;3.00;;
53151;SDS011;39234;53.158;6.322;2022-07-18T11:55:31;5.78;;;2.70;;
53151;SDS011;39234;53.158;6.322;2022-07-18T11:58:10;6.65;;;2.55;;
53151;SDS011;39234;53.158;6.322;2022-07-18T12:00:37;5.97;;;2.92;;
53151;SDS011;39234;53.158;6.322;2022-07-18T12:03:07;5.63;;;2.70;;
53151;SDS011;39234;53.158;6.322;2022-07-18T12:05:47;19.67;;;3.10;;
53151;SDS011;39234;53.158;6.322;2022-07-18T12:08:34;6.93;;;2.72;;
53151;SDS011;39234;53.158;6.322;2022-07-18T12:13:55;25.98;;;3.15;;
53151;SDS011;39234;53.158;6.322;2022-07-18T12:16:29;6.32;;;2.72;;
53151;SDS011;39234;53.158;6.322;2022-07-18T12:18:56;6.13;;;2.72;;
53151;SDS011;39234;53.158;6.322;2022-07-18T12:21:24;5.82;;;2.63;;
53151;SDS011;39234;53.158;6.322;2022-07-18T12:26:56;6.05;;;2.70;;
53151;SDS011;39234;53.158;6.322;2022-07-18T12:32:24;6.50;;;2.55;;
53151;SDS011;39234;53.158;6.322;2022-07-18T12:34:57;7.10;;;2.22;;
53151;SDS011;39234;53.158;6.322;2022-07-18T12:37:26;4.35;;;2.20;;
53151;SDS011;39234;53.158;6.322;2022-07-18T12:42:31;6.53;;;2.55;;
53151;SDS011;39234;53.158;6.322;2022-07-18T12:44:58;8.15;;;2.75;;
53151;SDS011;39234;53.158;6.322;2022-07-18T12:47:25;5.80;;;2.78;;
53151;SDS011;39234;53.158;6.322;2022-07-18T12:49:51;5.80;;;2.80;;
53151;SDS011;39234;53.158;6.322;2022-07-18T12:52:17;6.13;;;2.63;;
53151;SDS011;39234;53.158;6.322;2022-07-18T12:54:43;9.90;;;3.42;;
53151;SDS011;39234;53.158;6.322;2022-07-18T12:57:12;8.70;;;2.83;;
53151;SDS011;39234;53.158;6.322;2022-07-18T12:59:37;5.70;;;2.78;;
53151;SDS011;39234;53.158;6.322;2022-07-18T13:02:03;9.60;;;2.60;;
53151;SDS011;39234;53.158;6.322;2022-07-18T13:04:31;7.43;;;2.85;;
53151;SDS011;39234;53.158;6.322;2022-07-18T13:06:57;5.82;;;2.95;;
53151;SDS011;39234;53.158;6.322;2022-07-18T13:09:22;7.22;;;2.65;;
53151;SDS011;39234;53.158;6.322;2022-07-18T13:11:50;6.07;;;2.72;;
53151;SDS011;39234;53.158;6.322;2022-07-18T13:14:16;5.95;;;2.75;;
53151;SDS011;39234;53.158;6.322;2022-07-18T13:16:43;6.97;;;2.63;;
53151;SDS011;39234;53.158;6.322;2022-07-18T13:19:10;7.20;;;3.15;;
53151;SDS011;39234;53.158;6.322;2022-07-18T13:21:37;11.68;;;2.78;;
53151;SDS011;39234;53.158;6.322;2022-07-18T13:24:02;6.68;;;2.88;;
53151;SDS011;39234;53.158;6.322;2022-07-18T13:26:28;8.90;;;3.15;;
53151;SDS011;39234;53.158;6.322;2022-07-18T13:28:54;5.57;;;3.08;;
53151;SDS011;39234;53.158;6.322;2022-07-18T13:31:20;10.57;;;2.67;;
53151;SDS011;39234;53.158;6.322;2022-07-18T13:33:48;9.20;;;3.00;;
53151;SDS011;39234;53.158;6.322;2022-07-18T13:36:15;7.82;;;2.53;;
53151;SDS011;39234;53.158;6.322;2022-07-18T13:38:45;5.30;;;2.65;;
53151;SDS011;39234;53.158;6.322;2022-07-18T13:41:12;5.85;;;2.60;;
53151;SDS011;39234;53.158;6.322;2022-07-18T13:43:38;8.10;;;2.90;;
53151;SDS011;39234;53.158;6.322;2022-07-18T13:46:11;9.10;;;2.88;;
53151;SDS011;39234;53.158;6.322;2022-07-18T13:48:39;7.07;;;2.88;;
53151;SDS011;39234;53.158;6.322;2022-07-18T13:51:05;8.15;;;3.10;;
53151;SDS011;39234;53.158;6.322;2022-07-18T13:53:31;11.35;;;2.60;;
53151;SDS011;39234;53.158;6.322;2022-07-18T13:55:59;5.68;;;2.20;;
53151;SDS011;39234;53.158;6.322;2022-07-18T13:58:24;6.03;;;2.70;;
53151;SDS011;39234;53.158;6.322;2022-07-18T14:00:50;4.95;;;2.75;;
53151;SDS011;39234;53.158;6.322;2022-07-18T14:03:16;6.47;;;3.00;;
53151;SDS011;39234;53.158;6.322;2022-07-18T14:05:43;7.90;;;2.50;;
53151;SDS011;39234;53.158;6.322;2022-07-18T14:08:09;8.98;;;2.92;;
53151;SDS011;39234;53.158;6.322;2022-07-18T14:10:35;6.68;;;2.75;;
53151;SDS011;39234;53.158;6.322;2022-07-18T14:13:01;5.35;;;2.70;;
53151;SDS011;39234;53.158;6.322;2022-07-18T14:15:28;8.68;;;2.70;;
53151;SDS011;39234;53.158;6.322;2022-07-18T14:17:54;5.75;;;2.70;;
53151;SDS011;39234;53.158;6.322;2022-07-18T14:20:21;4.63;;;2.25;;
53151;SDS011;39234;53.158;6.322;2022-07-18T14:22:49;4.50;;;2.17;;
53151;SDS011;39234;53.158;6.322;2022-07-18T14:25:15;5.82;;;2.42;;
53151;SDS011;39234;53.158;6.322;2022-07-18T14:27:42;5.65;;;2.30;;
53151;SDS011;39234;53.158;6.322;2022-07-18T14:30:11;6.65;;;2.70;;
53151;SDS011;39234;53.158;6.322;2022-07-18T14:32:39;7.38;;;2.50;;
53151;SDS011;39234;53.158;6.322;2022-07-18T14:35:05;5.70;;;2.60;;
53151;SDS011;39234;53.158;6.322;2022-07-18T14:37:33;4.68;;;2.53;;
53151;SDS011;39234;53.158;6.322;2022-07-18T14:39:59;7.63;;;2.90;;
53151;SDS011;39234;53.158;6.322;2022-07-18T14:42:26;6.13;;;2.50;;
53151;SDS011;39234;53.158;6.322;2022-07-18T14:44:52;7.70;;;2.95;;
53151;SDS011;39234;53.158;6.322;2022-07-18T14:47:18;6.63;;;2.53;;
53151;SDS011;39234;53.158;6.322;2022-07-18T14:49:44;6.57;;;2.30;;
53151;SDS011;39234;53.158;6.322;2022-07-18T14:52:10;6.45;;;2.40;;
53151;SDS011;39234;53.158;6.322;2022-07-18T14:54:35;6.05;;;2.42;;
53151;SDS011;39234;53.158;6.322;2022-07-18T14:57:01;6.93;;;2.30;;
53151;SDS011;39234;53.158;6.322;2022-07-18T14:59:30;6.97;;;2.90;;
53151;SDS011;39234;53.158;6.322;2022-07-18T15:01:56;5.07;;;2.50;;
53151;SDS011;39234;53.158;6.322;2022-07-18T15:04:24;9.70;;;3.00;;
53151;SDS011;39234;53.158;6.322;2022-07-18T15:06:50;12.40;;;3.05;;
53151;SDS011;39234;53.158;6.322;2022-07-18T15:09:19;4.95;;;2.58;;
53151;SDS011;39234;53.158;6.322;2022-07-18T15:11:47;9.13;;;2.47;;
53151;SDS011;39234;53.158;6.322;2022-07-18T15:14:13;8.95;;;2.63;;
53151;SDS011;39234;53.158;6.322;2022-07-18T15:16:38;4.80;;;2.22;;
53151;SDS011;39234;53.158;6.322;2022-07-18T15:19:04;7.47;;;2.65;;
53151;SDS011;39234;53.158;6.322;2022-07-18T15:21:30;5.25;;;2.47;;
53151;SDS011;39234;53.158;6.322;2022-07-18T15:23:56;6.38;;;2.53;;
53151;SDS011;39234;53.158;6.322;2022-07-18T15:26:22;5.47;;;2.22;;
53151;SDS011;39234;53.158;6.322;2022-07-18T15:28:48;12.30;;;2.40;;
53151;SDS011;39234;53.158;6.322;2022-07-18T15:31:14;6.95;;;2.13;;